AGROMETEOROLOŠKI PORTAL

Vinorodna pokrajina

Temelj dobrega kmetovanja.

Izpis lokacij s podatki meritev in opazovanj za vse lokacije

Vir: ARSO
Zahodna Slovenija
Lokacija Nadmorska višina Lega Višina meritve senzorja Datum in čas meritve Dosežena min. temperatura RH Veter (m/s) Temp. rosišča Temp. mokrega termometra
Bilje UVHVVR 55 m 2 m 23.2.2024 22:00 9,3 98,5 9,1 9,2
Čelje 496 m V 2 m 24.2.2024 00:30 6,1 98,3 5,9 6,0
Dragonja 34 m S 2 m 24.2.2024 00:30 8,5 98,7 8,3 8,4
Dutovlje 316 m J 2 m 24.2.2024 00:30 7,2 93,8 6,3 6,7
Komen 269 m J 2 m 23.2.2024 22:00 7,7 100,0 7,7 7,7
Kozana 182 m S 2 m 23.2.2024 22:00 8,4 100,0 1,9 8,4 8,4
Miren. 47 m S 2 m 24.2.2024 00:30 9,3 93,8 1,8 8,4 8,8
Potoče 75 m 2 m 24.2.2024 00:00 8,6 88,7 6,9 7,7
Pradisiol 3 m S 2 m 24.2.2024 00:30 8,8 88,7 7,0 7,9
Puče 275 m J 2 m 24.2.2024 00:30 7,4 96,7 3,4 6,9 7,2
Purisima 50 m J 2 m 23.2.2024 22:00 8,9 98,5 8,7 8,8
Slap 112 m 2 m 23.2.2024 22:00 8,7 93,8 2,4 7,8 8,2
Sužid 231 m 2 m 23.2.2024 23:30 6,3 99,9 6,3 6,3
Šlovrenc 92 m JZ 2 m 23.2.2024 22:00 8,8 100,0 8,8 8,8
Truške 230 m 2 m 24.2.2024 00:30 6,7 98,4 6,5 6,6
Vipolže 59 m 2 m 23.2.2024 22:00 9,1 95,2 2,8 8,4 8,7
Višnjevik 223 m V 2 m 23.2.2024 22:00 8,0 100,0 8,0 8,0
Vogrsko 62 m 2 m 23.2.2024 22:00 9,0 99,2 1,2 8,9 9,0
Zavrhek 340 m J 2 m 23.2.2024 22:30 6,9 99,9 6,9 6,9
Ajdovščina 83 m 2 m 24.2.2024 00:00 8,8 94,0 1,9 7,9 8,3
BILJE ARSO 55 m 2 m 23.2.2024 22:00 9,3 91,0 6,9 7,9 8,6
BILJE ARSO 55 m 5 cm 23.2.2024 23:30 8,7 89,0 7,5 7,0 7,8
Bovec - letališče ARSO 438 m 2 m 23.2.2024 23:30 3,1 96,0 2,8 2,5 2,8
GODNJE ARSO 315 m 2 m 23.2.2024 22:00 7,4 96,0 4,7 6,8 7,1
Ilirska Bistrica - Koseze ARSO 415 m 2 m 23.2.2024 23:30 6,6 92,0 3,9 5,4 6,0
KUBED ARSO 236 m 2 m 23.2.2024 22:00 7,8 96,0 7,2 7,5
PODNANOS - ARSO 153 m 2 m 23.2.2024 22:00 8,8 91,0 5,3 7,4 8,1
Portorož-letališče ARSO 0 m 2 m 23.2.2024 22:00 9,3 90,0 3,3 7,8 8,5
POSTOJNA ARSO 534 m 2 m 23.2.2024 22:00 6,5 94,0 5,0 5,6 6,1
ŠKOCJAN ARSO 420 m 2 m 23.2.2024 22:00 7,0 95,0 3,3 6,3 6,6
VEDRIJAN ARSO 228 m 2 m 23.2.2024 22:00 8,1 99,0 8,0 8,0
ZADLOG - ARSO 716 m 2 m 23.2.2024 23:30 5,3 92,0 4,1 4,8
Beneša - Ankaran (ZRSKP) 62 m 2 m 23.2.2024 22:00 8,6 94,5 1,8 7,8 8,2
Mala Seva - Izola (ZRSKP) 90 m 2 m 24.2.2024 00:30 7,9 92,6 6,4 6,8 7,3
Marezeige - Koper (ZRS) 189 m J 2 m 23.2.2024 22:00 8,1 93,2 1,3 7,1 7,6
Semedela - Markovec (ZRSKP) 149 m 2 m 24.2.2024 00:30 7,3 92,5 2,1 6,2 6,7
Kapelski vrh DRSI 285 m 2 m 24.2.2024 00:00 11,0 56,0 1,1 2,6 7,0
Kobarid DRSI 242 m 2 m 23.2.2024 22:00 6,0 8,0 1,4 -25,6 -1,4
Koper DRSI 5 m 2 m 23.2.2024 22:00 11,0 100,0 0,0 11,0 11,0
Lazaret DRSI 2 m 2 m 23.2.2024 22:00 10,0 98,0 1,1 9,7 9,9
Valeta DRSI 100 m 2 m 24.2.2024 00:00 8,7 99,0 1,1 8,6 8,6
Cerovo 157 m 2 m 23.2.2024 22:00 8,4 99,3 8,3 8,4
Hruševlje 105 m 2 m 23.2.2024 22:00 8,7 99,5 8,6 8,7
Plešivo 109 m 2 m 23.2.2024 22:30 8,7 100,0 2,3 8,7 8,7
Osrednja Slovenija
Lokacija Nadmorska višina Lega Višina meritve senzorja Datum in čas meritve Dosežena min. temperatura RH Veter (m/s) Temp. rosišča Temp. mokrega termometra
Borovnica 288 m 2 m 23.2.2024 22:00 7,2 98,1 2,2 6,9 7,1
Brdo pri Lukovici 368 m J 2 m 23.2.2024 22:30 6,6 99,9 6,6 6,6
Češnjevek (Cerklje) 405 m S 2 m 24.2.2024 00:00 6,8 95,0 2,0 6,1 6,4
Gabrska Gora 487 m 2 m 24.2.2024 00:30 6,3 99,6 6,2 6,3
Jablje 302 m S 2 m 23.2.2024 23:30 7,1 100,0 1,4 7,1 7,1
Jablje 302 m S 20 cm 23.2.2024 23:30 6,7 100,0 1,4 6,7 6,7
Kamnik 377 m JV 2 m 24.2.2024 00:00 6,5 99,8 6,5 6,5
Kovor 514 m 2 m 23.2.2024 22:00 6,0 89,8 4,5 5,3
Kovor 514 m 20 cm 23.2.2024 22:00 5,6 89,8 4,1 4,9
Ljubljana KIS 297 m S 2 m 23.2.2024 23:30 7,7 89,4 6,1 6,9
Podbrezje 456 m JV 2 m 23.2.2024 22:00 5,8 100,0 5,8 5,8
Resje 503 m 2 m 23.2.2024 22:30 5,4 99,5 5,3 5,4
Šentjakob 279 m 20 cm 23.2.2024 23:30 6,6 94,8 5,8 6,2
Šentjakob 279 m 2 m 24.2.2024 00:00 7,1 100,0 7,1 7,1
Žabnica (Dorfarje) 372 m 2 m 24.2.2024 00:00 6,6 100,0 1,3 6,6 6,6
BOHINJSKA ČEŠNJICA - ARSO 596 m 2 m 23.2.2024 22:00 3,6 98,0 3,3 3,5
BORŠT PRI GORENJI VASI ARSO 532 m 2 m 23.2.2024 23:00 5,9 90,0 5,3 4,4 5,2
BRNIK - LETALIŠČE - ARSO 364 m 2 m 23.2.2024 23:00 6,9 93,0 3,9 5,9 6,4
Lesce 515 m 2 m 24.2.2024 00:00 5,8 95,0 1,7 5,1 5,4
LITIJA ARSO 263 m 2 m 24.2.2024 00:00 7,9 93,0 6,8 7,4
Ljubljana - Bežigrad ARSO 299 m 2 m 23.2.2024 23:30 7,5 91,0 1,9 6,1 6,8
LOGATEC - ARSO 486 m 2 m 23.2.2024 22:00 6,6 90,0 5,1 5,9
NOVA VAS - BLOKE - ARSO 718 m 2 m 23.2.2024 22:00 4,7 91,0 3,4 4,1
VRHNIKA ARSO 367 m 2 m 24.2.2024 00:00 6,7 95,0 1,4 6,0 6,3
Jeprca DRSI 360 m 2 m 23.2.2024 23:30 6,6 97,0 0,5 6,2 6,4
Kranj - Delavski most DRSI 380 m 2 m 23.2.2024 23:30 7,1 94,0 2,8 6,2 6,7
Krtina 1 DRSI 308 m 2 m 23.2.2024 23:00 7,0 98,0 0,8 6,7 6,9
Moste pri Komendi DRSI 331 m 2 m 24.2.2024 00:00 8,0 100,0 1,1 8,0 8,0
Podvin DRSI 489 m 2 m 23.2.2024 22:00 5,0 100,0 3,1 5,0 5,0
Vrhnika AC priključek DRSI 293 m 2 m 23.2.2024 22:00 7,0 46,0 0,3 -3,8 2,6
Celjska in Koroška regija
Lokacija Nadmorska višina Lega Višina meritve senzorja Datum in čas meritve Dosežena min. temperatura RH Veter (m/s) Temp. rosišča Temp. mokrega termometra
Bistrica ob Sotli 324 m J 2 m 24.2.2024 00:30 9,3 90,1 7,8 8,5
Braslovče (Pšaker) 322 m JV 2 m 24.2.2024 00:00 6,6 100,0 1,2 6,6 6,6
Črnova (Gradišnik) 453 m JZ 2 m 24.2.2024 00:30 6,1 100,0 6,1 6,1
Gabernik-Rogaška 379 m JZ 2 m 24.2.2024 00:30 8,5 93,4 7,5 8,0
Kasaze (Mirosan) 279 m S 2 m 24.2.2024 00:30 7,8 89,2 2,5 6,1 7,0
Latkova vas 279 m S 2 m 24.2.2024 00:30 7,4 100,0 2,4 7,4 7,4
Ojstriška vas 308 m Z 2 m 23.2.2024 23:30 7,5 95,1 6,8 7,1
Radlje ob Dravi 352 m 2 m 23.2.2024 22:00 7,1 100,0 7,1 7,1
Slom 279 m S 2 m 24.2.2024 00:30 8,2 100,0 8,2 8,2
Slovenske Konjice 377 m 2 m 24.2.2024 00:30 7,2 96,6 6,7 7,0
Škofja vas 246 m 2 m 24.2.2024 00:30 7,7 100,0 1,9 7,7 7,7
Virštanj 368 m S 2 m 24.2.2024 00:30 9,0 78,9 5,6 7,3
Žalec (PDC) 254 m S 2 m 23.2.2024 23:00 8,9 99,6 2,0 8,8 8,9
Celje - Medlog ARSO 241 m S 2 m 24.2.2024 00:00 8,2 94,0 3,1 7,3 7,7
PODČETRTEK - ATOMSKE TOPLICE ARSO 201 m 2 m 24.2.2024 00:00 10,2 86,0 4,2 8,0 9,0
RAVNE NA KOROŠKEM - ARSO 394 m 2 m 24.2.2024 00:00 4,3 95,0 4,7 3,6 4,0
ROGAŠKA SLATINA ARSO 289 m 2 m 24.2.2024 00:00 9,2 93,0 3,3 8,1 8,6
SLOVENSKE KONJICE ARSO 315 m 2 m 24.2.2024 00:00 8,4 87,0 6,4 7,4
ŠMARTNO PRI SLOVENJ GRADCU ARSO 442 m 2 m 24.2.2024 00:00 7,2 89,0 6,9 5,5 6,4
ŠMARTNO PRI SLOVENJ GRADCU ARSO 442 m 5 cm 24.2.2024 00:00 6,1 89,0 6,9 4,4 5,3
Črnova DRSI 304 m 2 m 24.2.2024 00:00 9,1 86,0 0,4 6,9 8,0
Podplat DRSI 230 m 2 m 23.2.2024 23:30 9,6 89,0 1,7 7,9 8,7
Radlje DRSI 355 m 2 m 23.2.2024 22:00 7,3 100,0 1,0 7,3 7,3
Rimske Toplice DRSI 210 m 2 m 24.2.2024 00:00 9,2 90,0 1,0 7,7 8,4
Šentrupert DRSI 280 m 2 m 23.2.2024 23:30 9,0 66,0 1,1 3,0 6,1
Jugovzhodna Slovenija
Lokacija Nadmorska višina Lega Višina meritve senzorja Datum in čas meritve Dosežena min. temperatura RH Veter (m/s) Temp. rosišča Temp. mokrega termometra
Artiče 201 m J 2 m 24.2.2024 00:30 9,4 88,2 7,6 8,4
Bizeljsko 347 m J 2 m 24.2.2024 00:30 9,1 84,1 6,6 7,8
Blanca 278 m JZ 2 m 24.2.2024 00:00 8,7 95,7 8,1 8,4
Črnomelj 253 m JZ 2 m 24.2.2024 00:00 9,3 89,3 7,6 8,4
Drašiči 244 m J 2 m 24.2.2024 00:30 9,4 92,3 8,2 8,8
Kostanjevica na Krki 165 m 2 m 24.2.2024 00:00 9,8 79,9 6,5 8,1
Mali Podlog (Krško) 158 m 2 m 24.2.2024 00:30 10,4 87,5 4,4 8,4 9,4
Otočec 198 m J 2 m 24.2.2024 00:30 8,9 96,6 8,4 8,6
Rodine pri Trebnjem APS 284 m J 2 m 24.2.2024 00:30 7,5 97,4 1,2 7,1 7,3
Sremič 466 m JZ 2 m 24.2.2024 00:30 7,5 89,5 5,9 6,7
Šentjernej APS 231 m JV 2 m 24.2.2024 00:00 10,0 95,9 4,7 9,4 9,7
CERKLJE - LETALIŠČE ARSO 155 m 2 m 24.2.2024 00:00 10,6 82,0 8,9 7,7 9,1
ČRNOMELJ - DOBLIČE ARSO 155 m 2 m 24.2.2024 00:00 10,4 86,0 3,3 8,2 9,2
HOČKO POHORJE - ARSO 585 m 2 m 24.2.2024 00:00 6,8 87,0 4,8 5,8
KRŠKO - NEK ARSO 155 m 2 m 24.2.2024 00:00 10,6 89,0 8,9 8,9 9,7
MALKOVEC ARSO 397 m 2 m 23.2.2024 23:30 7,7 94,0 6,1 6,8 7,2
METLIKA ARSO 166 m 2 m 24.2.2024 00:00 10,2 81,0 7,1 8,6
NOVO MESTO ARSO 220 m 2 m 23.2.2024 23:30 9,9 89,0 8,6 8,2 9,0
NOVO MESTO ARSO 220 m 5 cm 24.2.2024 00:00 8,6 85,0 9,4 6,2 7,4
TREBNJE ARSO 303 m 2 m 24.2.2024 00:00 7,8 95,0 7,1 7,4
Elbl-2 DRSI 314 m 2 m 24.2.2024 00:00 10,0 100,0 6,7 10,0 10,0
Krško DRSI 167 m 2 m 23.2.2024 23:30 10,0 95,0 0,8 9,2 9,6
Miklavž DRSI 257 m 2 m 23.2.2024 23:00 6,0 73,0 2,2 1,6 4,0
Trebnje DRSI 270 m 2 m 24.2.2024 00:00 8,2 86,0 1,1 6,0 7,1
Severovzhodna Slovenija
Lokacija Nadmorska višina Lega Višina meritve senzorja Datum in čas meritve Dosežena min. temperatura RH Veter (m/s) Temp. rosišča Temp. mokrega termometra
Dravinjski vrh 304 m Z 2 m 24.2.2024 00:30 9,0 91,6 6,4 7,7 8,3
Gačnik METOS 297 m 2 m 24.2.2024 00:30 8,8 86,8 6,7 7,8
Godemarci 212 m JV 2 m 24.2.2024 00:30 9,4 79,9 6,1 7,7
Godemarci 212 m JV 50 cm 24.2.2024 00:30 9,5 79,9 6,2 7,8
Litmerk - bionomija in RLP 314 m JZ 2 m 24.2.2024 00:30 9,3 79,5 6,0 7,6
Maribor - BTŠ 276 m J 2 m 24.2.2024 00:30 8,5 79,8 3,0 5,2 6,9
Meranovo 501 m JV 2 m 24.2.2024 00:30 5,8 77,7 2,2 4,2
Moškanjci 213 m 2 m 24.2.2024 00:30 9,2 85,0 3,4 6,8 8,0
Pohorski dvor 313 m V 2 m 24.2.2024 00:30 7,1 95,2 6,4 6,8
Ritoznoj 402 m JV 2 m 24.2.2024 00:30 7,1 99,9 7,1 7,1
Selnica ob Dravi 311 m SV 2 m 24.2.2024 00:30 7,5 84,6 4,6 5,1 6,3
Selo 299 m J 2 m 24.2.2024 00:30 9,3 76,5 5,4 7,4
Stročja vas 240 m SV 2 m 24.2.2024 00:30 10,1 74,3 3,3 5,8 7,9
Špičnik 338 m 2 m 24.2.2024 00:00 7,7 100,0 7,7 7,7
Vidonci 337 m JV 2 m 24.2.2024 00:30 8,6 86,7 6,5 7,6
Vitomarci 299 m SV 2 m 24.2.2024 00:30 8,9 94,0 8,0 8,4
Zbigovci - RLP 299 m Z 2 m 24.2.2024 00:30 9,3 89,9 7,7 8,5
Zimica 296 m Z 2 m 24.2.2024 00:30 8,4 93,6 7,4 7,9
GAČNIK ARSO 291 m 2 m 24.2.2024 00:00 9,2 84,0 2,8 6,7 7,9
JERUZALEM - ARSO 335 m 2 m 24.2.2024 00:00 9,8 75,0 5,6 7,7
LENDAVA - TERME ARSO 161 m 2 m 23.2.2024 22:00 10,6 63,0 4,7 3,9 7,3
MARIBOR - LETALIŠČE ARSO 264 m 2 m 24.2.2024 00:00 8,9 88,0 6,9 7,0 7,9
MARIBOR - VRBANSKI PLATO ARSO 274 m 2 m 24.2.2024 00:00 8,9 77,0 8,9 5,1 7,0
MARINČA VAS - ARSO 272 m 2 m 24.2.2024 00:00 7,6 96,0 7,0 7,3
MURSKA SOBOTA - RAKIČAN ARSO 184 m 2 m 24.2.2024 00:00 11,1 70,0 8,3 5,9 8,4
MURSKA SOBOTA - RAKIČAN ARSO 184 m 5 cm 23.2.2024 23:30 8,8 59,0 7,8 1,3 5,3
PTUJ - ARSO 222 m 2 m 24.2.2024 00:00 9,6 91,0 2,8 8,2 8,9
SOTINSKI BREG ARSO 415 m 2 m 24.2.2024 00:00 9,1 79,0 11,7 5,7 7,4
Šentilj DRSI 300 m 2 m 23.2.2024 23:30 10,0 79,0 1,1 6,5 8,2
Postaje, katerih podatke prikazujemo na portalu, so postaje proizvajalca Adcon Telemetry in Pessl (UVHVVR/MKGP), postaje ARSO in postaje DRSI.

IZJAVA O OMEJITVI ODGOVORNOSTI: Uprava Republike Slovenije za varno hrano, veterinarstvo in varstvo rastlin (Uprava) skupaj z Opazovalno napovedovalno službo zdravstvenega varstva rastlin skrbi za nemoteno delovanje in vzdrževanje meteoroloških podatkov iz mreže agrometeoroloških postaj (Adcon Telemety). Agrometeorološki podatki, ki so objavljeni na tej strani, so zgolj informativne narave. Za morebitne vsebinske napake, do katerih lahko pride zaradi tehničnih težav pri vzdrževanju mreže, napak merilne opreme ali drugih nepredvidljivih vzrokov, napak pri vnosu, posodabljanja vsebin, Uprava ne prevzema odgovornosti, kakor tudi ne zaradi nepravilnega delovanja in/ali nedostopnosti vsebine teh spletnih strani. Uprava tudi ne prevzema odgovornosti za kakršnokoli neposredno ali posredno izgubo oziroma škodo, materialno in nematerialno, ki bi nastala zaradi dostopa, uporabe ali odločitve, sprejete na podlagi informacij, objavljenih na teh spletnih straneh, kakor tudi ne zaradi nepravilnega delovanja in/ali nedostopnosti vsebine teh spletnih strani. Uprava si pridržuje pravico do spremembe oziroma umika vsebine, deloma ali v celoti, brez predhodne najave. Vsak poskus nepooblaščenega spreminjanja ali poškodovanja spletnih strani, kot tudi nepooblaščen dostop do informacij mimo spletnih strani in do drugih vsebin, je kaznivo dejanje. Pri uporabi vsebin, objavljenih na portalu, je potrebno navesti vir podatkov (UVHVVR, Agrometeorološki portal Slovenije) in upoštevati avtorske pravice.